Patriot — WDC2859 — position and weather

sailwx.info

Track history (hours):
 
Tides and Currents Weather Stations Pressure Air Temp Water Temp Dewpoint Dewpoint Depression Visibility Wind Speed Wind Dir Waves Ship Positions

Patriot

Owner: AMNAV Maritime Corporation, Oakland, CA. More information available from US FCC via Universal Licensing System and Coast Guard Vessel Documentation Center.

Last reported at 2017-Jun-29 02:00 UTC. Time now 2017-Jun-29 02:07 UTC.
Position N 37°54' W 122°23'.

Length 31 m; draft 4.6 m.

Type: Tug. MMSI: 366998680.

Date/timePositionNaut miles runAvg speedWind from/ knotsBaromVisibWave heightAir tempDewpointWater temp
2017-Jun-29 02:00N 37°54' W 122°23'0 0.0
2017-Jun-29 01:30N 37°54' W 122°23'0 0.0
2017-Jun-29 01:00N 37°54' W 122°23'0 0.0
2017-Jun-29 00:30N 37°54' W 122°23'0 0.0
2017-Jun-29 00:00N 37°54' W 122°23'1 2.1
2017-Jun-28 23:30N 37°54' W 122°22'0 0.6
2017-Jun-28 23:00N 37°55' W 122°22'0 0.0
2017-Jun-28 22:30N 37°55' W 122°22'2 3.4
2017-Jun-28 22:01N 37°54' W 122°24'611.0
2017-Jun-28 21:30N 37°49' W 122°21'2 4.4
2017-Jun-28 21:00N 37°49' W 122°19'0 0.0
2017-Jun-28 20:30N 37°49' W 122°19'0 0.0
2017-Jun-28 20:00N 37°49' W 122°19'0 0.0
2017-Jun-28 19:31N 37°49' W 122°19'0 0.0
2017-Jun-28 19:01N 37°49' W 122°19'0 0.0
2017-Jun-28 18:30N 37°49' W 122°19'0 0.0
2017-Jun-28 18:01N 37°49' W 122°19'0 0.0
2017-Jun-28 17:31N 37°49' W 122°19'0 0.0
2017-Jun-28 17:01N 37°49' W 122°19'0 0.0
2017-Jun-28 16:30N 37°49' W 122°19'0 0.0
2017-Jun-28 16:01N 37°49' W 122°19'0 0.0
2017-Jun-28 15:31N 37°49' W 122°19'0 0.0
2017-Jun-28 15:00N 37°49' W 122°19'2 1.6
2017-Jun-28 14:01N 37°48' W 122°19'0 0.0
2017-Jun-28 13:30N 37°48' W 122°19'1 2.1
2017-Jun-28 13:01N 37°48' W 122°18'1 1.4
2017-Jun-28 12:30N 37°48' W 122°19'3 6.3
2017-Jun-28 12:00N 37°48' W 122°23'2 3.4
2017-Jun-28 11:31N 37°48' W 122°21'0 0.0
2017-Jun-28 11:00N 37°48' W 122°21'0 0.0
2017-Jun-28 10:30N 37°48' W 122°21'0 0.0
2017-Jun-28 10:00N 37°48' W 122°21'0 0.0
2017-Jun-28 09:30N 37°48' W 122°21'0 0.0
2017-Jun-28 09:00N 37°48' W 122°21'0 0.0
2017-Jun-28 08:30N 37°48' W 122°21'0 0.0
2017-Jun-28 08:01N 37°48' W 122°21'0 0.0
2017-Jun-28 07:31N 37°48' W 122°21'0 0.0
2017-Jun-28 07:00N 37°48' W 122°21'0 0.0
2017-Jun-28 06:30N 37°48' W 122°21'0 0.0
2017-Jun-28 06:00N 37°48' W 122°21'0 0.0
2017-Jun-28 05:31N 37°48' W 122°21'0 0.0
2017-Jun-28 05:00N 37°48' W 122°21'0 0.0
2017-Jun-28 04:30N 37°48' W 122°21'0 0.0
2017-Jun-28 04:00N 37°48' W 122°21'4 7.1
2017-Jun-28 03:30N 37°51' W 122°23'510.5
2017-Jun-28 03:00N 37°56' W 122°26'610.2
2017-Jun-28 02:27N 38°01' W 122°23'6 9.1
2017-Jun-28 01:48N 38°03' W 122°16'0 0.0
2017-Jun-28 01:21N 38°03' W 122°16'0 0.7
2017-Jun-28 00:49N 38°04' W 122°16'2 4.3
2017-Jun-28 00:28N 38°03' W 122°18'0 0.1
2017-Jun-27 23:57N 38°03' W 122°18'4 7.4
2017-Jun-27 23:26N 38°02' W 122°22'5 9.5
2017-Jun-27 22:54N 37°58' W 122°26'411.3
2017-Jun-27 22:30N 37°53' W 122°25'5 9.7
2017-Jun-27 22:01N 37°49' W 122°21'2 4.5
2017-Jun-27 21:30N 37°49' W 122°19'0 0.0
2017-Jun-27 21:00N 37°49' W 122°19'0 0.0
2017-Jun-27 20:30N 37°49' W 122°19'0 0.0
2017-Jun-27 20:00N 37°49' W 122°19'0 0.0
2017-Jun-27 19:30N 37°49' W 122°19'0 0.0
2017-Jun-27 19:00N 37°49' W 122°19'0 0.0
2017-Jun-27 18:30N 37°49' W 122°19'0 0.0
2017-Jun-27 18:00N 37°49' W 122°19'0 0.0
2017-Jun-27 17:30N 37°49' W 122°19'0 0.0
2017-Jun-27 17:00N 37°49' W 122°19'0 0.0
2017-Jun-27 16:30N 37°49' W 122°19'0 0.0
2017-Jun-27 16:00N 37°49' W 122°19'0 0.0
2017-Jun-27 15:30N 37°49' W 122°19'0 0.0
2017-Jun-27 15:00N 37°49' W 122°19'0 0.0
2017-Jun-27 14:30N 37°49' W 122°19'0 0.0
2017-Jun-27 13:30N 37°49' W 122°19'0 0.0
2017-Jun-27 12:59N 37°49' W 122°19'2 3.3
2017-Jun-27 12:30N 37°48' W 122°19'1 1.0
2017-Jun-27 12:00N 37°48' W 122°20'1 1.3
2017-Jun-27 11:31N 37°49' W 122°20'1 2.9
2017-Jun-27 11:00N 37°49' W 122°19'0 0.0
2017-Jun-27 10:30N 37°49' W 122°19'0 0.0
2017-Jun-27 10:00N 37°49' W 122°19'0 0.0
2017-Jun-27 09:30N 37°49' W 122°19'0 0.0
2017-Jun-27 09:00N 37°49' W 122°19'0 0.0
2017-Jun-27 08:31N 37°49' W 122°19'0 0.0
2017-Jun-27 08:01N 37°49' W 122°19'0 0.0
2017-Jun-27 07:30N 37°49' W 122°19'0 0.0
2017-Jun-27 07:00N 37°49' W 122°19'0 0.0
2017-Jun-27 06:31N 37°49' W 122°19'0 0.0
2017-Jun-27 06:00N 37°49' W 122°19'0 0.0
2017-Jun-27 05:30N 37°49' W 122°19'0 0.0
2017-Jun-27 05:00N 37°49' W 122°19'0 0.0
2017-Jun-27 04:31N 37°49' W 122°19'0 0.0
2017-Jun-27 04:01N 37°49' W 122°19'0 0.0
2017-Jun-27 03:30N 37°49' W 122°19'0 0.0
2017-Jun-27 03:00N 37°49' W 122°19'0 0.0
2017-Jun-27 02:31N 37°49' W 122°19'0 0.0
2017-Jun-27 02:00N 37°49' W 122°19'0 0.0
2017-Jun-27 01:30N 37°49' W 122°19'0 0.0
2017-Jun-27 01:00N 37°49' W 122°19'1 1.9
2017-Jun-27 00:30N 37°49' W 122°20'0 0.1
2017-Jun-27 00:00N 37°49' W 122°20'0 0.9
2017-Jun-26 23:30N 37°49' W 122°20'0 0.0
2017-Jun-26 23:00N 37°49' W 122°20'0 0.5
2017-Jun-26 22:31N 37°49' W 122°20'0 0.4
2017-Jun-26 22:00N 37°48' W 122°21'0 0.2
2017-Jun-26 21:30N 37°48' W 122°20'510.6
2017-Jun-26 21:00N 37°53' W 122°24'610.2
2017-Jun-26 20:28N 37°58' W 122°26'510.1
2017-Jun-26 19:58N 38°02' W 122°21'6 0.2
2017-Jun-25 06:20N 38°04' W 122°13'413.0
2017-Jun-25 06:00N 38°03' W 122°19'612.8
2017-Jun-25 05:30N 37°59' W 122°25'4 8.2
2017-Jun-25 05:00N 37°55' W 122°25'0 0.0
2017-Jun-25 04:30N 37°55' W 122°25'0 0.0
2017-Jun-25 04:00N 37°55' W 122°25'1 2.0
2017-Jun-25 03:30N 37°54' W 122°25'1 2.4
2017-Jun-25 03:00N 37°53' W 122°25'1 1.1
2017-Jun-25 02:30N 37°53' W 122°25'3 6.2
2017-Jun-25 02:00N 37°50' W 122°22'4 8.4
2017-Jun-25 01:31N 37°48' W 122°18'0 0.1
2017-Jun-25 01:01N 37°48' W 122°18'0 0.7
2017-Jun-25 00:31N 37°48' W 122°18'3 5.3
2017-Jun-25 00:00N 37°48' W 122°21'0 0.8
2017-Jun-24 23:30N 37°48' W 122°22'1 2.0
2017-Jun-24 23:01N 37°48' W 122°21'0 0.0
2017-Jun-24 22:30N 37°48' W 122°21'0 0.0
2017-Jun-24 22:01N 37°48' W 122°21'1 1.7
2017-Jun-24 21:30N 37°49' W 122°20'0 0.3
2017-Jun-24 21:01N 37°49' W 122°20'1 2.1
2017-Jun-24 20:30N 37°49' W 122°19'0 0.0
2017-Jun-24 20:00N 37°49' W 122°19'0 0.0
2017-Jun-24 19:30N 37°49' W 122°19'0 0.0
2017-Jun-24 19:00N 37°49' W 122°19'0 0.0
2017-Jun-24 18:30N 37°49' W 122°19'0 0.0
2017-Jun-24 18:01N 37°49' W 122°19'0 0.0
2017-Jun-24 17:21N 37°49' W 122°19'0 0.0
2017-Jun-24 17:00N 37°49' W 122°19'0 0.1
2017-Jun-24 16:30N 37°49' W 122°19'0 0.1
2017-Jun-24 16:00N 37°49' W 122°19'0 0.0
2017-Jun-24 15:31N 37°49' W 122°19'0 0.1
2017-Jun-24 15:01N 37°49' W 122°19'0 0.0
2017-Jun-24 14:00N 37°49' W 122°19'0 0.1
2017-Jun-24 13:30N 37°49' W 122°19'0 0.1
2017-Jun-24 13:00N 37°49' W 122°19'0 0.0
2017-Jun-24 12:31N 37°49' W 122°19'0 0.0
2017-Jun-24 12:01N 37°49' W 122°19'0 0.0
2017-Jun-24 11:30N 37°49' W 122°19'0 0.0
2017-Jun-24 11:01N 37°49' W 122°19'0 0.0
2017-Jun-24 10:31N 37°49' W 122°19'0 0.0
2017-Jun-24 10:01N 37°49' W 122°19'0 0.0
2017-Jun-24 09:31N 37°49' W 122°19'0 0.1
2017-Jun-24 09:01N 37°49' W 122°19'0 0.1
2017-Jun-24 08:31N 37°49' W 122°19'0 0.0
2017-Jun-24 08:01N 37°49' W 122°19'0 0.0
2017-Jun-24 07:30N 37°49' W 122°19'0 0.0
2017-Jun-24 07:01N 37°49' W 122°19'0 0.0
2017-Jun-24 06:31N 37°49' W 122°19'0 0.1
2017-Jun-24 06:01N 37°49' W 122°19'0 0.0
2017-Jun-24 05:31N 37°49' W 122°19'0 0.1
2017-Jun-24 05:01N 37°49' W 122°19'0 0.0
2017-Jun-24 04:30N 37°49' W 122°19'0 0.0
2017-Jun-24 04:01N 37°49' W 122°19'0 0.0
2017-Jun-24 03:30N 37°49' W 122°19'0 0.0
2017-Jun-24 03:00N 37°49' W 122°19'0 0.1
2017-Jun-24 02:31N 37°49' W 122°19'0 0.6
2017-Jun-24 02:00N 37°49' W 122°19'611.5
2017-Jun-24 01:31N 37°49' W 122°26'1 2.2
2017-Jun-24 01:01N 37°50' W 122°27'5 9.8
2017-Jun-24 00:30N 37°48' W 122°21'2 3.3
2017-Jun-24 00:01N 37°48' W 122°19'0 0.0
2017-Jun-23 23:31N 37°48' W 122°19'0 0.0
2017-Jun-23 23:01N 37°48' W 122°19'0 0.0
2017-Jun-23 22:30N 37°48' W 122°19'3 6.7
2017-Jun-23 22:01N 37°50' W 122°22'611.5
2017-Jun-23 21:31N 37°55' W 122°25'611.1
2017-Jun-23 20:56N 38°01' W 122°23'810.3
2017-Jun-23 20:12N 38°04' W 122°14'4 2.4
2017-Jun-23 18:20N 38°02' W 122°08'0 0.0
2017-Jun-23 02:13N 38°02' W 122°08'2 9.3
2017-Jun-23 02:00N 38°03' W 122°11'510.4
2017-Jun-23 01:30N 38°03' W 122°17'610.8
2017-Jun-23 01:00N 38°01' W 122°24'510.4
2017-Jun-23 00:30N 37°56' W 122°25'1 1.9
2017-Jun-22 23:58N 37°55' W 122°25'0 0.5
2017-Jun-22 23:31N 37°54' W 122°25'0 0.0
2017-Jun-22 23:00N 37°54' W 122°25'1 1.1
2017-Jun-22 22:30N 37°54' W 122°24'2 3.3
2017-Jun-22 22:00N 37°54' W 122°22'0 1.0
2017-Jun-22 21:30N 37°55' W 122°22'1 1.5
2017-Jun-22 21:00N 37°54' W 122°22'4 7.5
2017-Jun-22 20:30N 37°50' W 122°23'3 6.7
2017-Jun-22 20:00N 37°49' W 122°19'0 0.0
2017-Jun-22 19:30N 37°49' W 122°19'0 0.0
2017-Jun-22 19:00N 37°49' W 122°19'0 0.0
2017-Jun-22 18:30N 37°49' W 122°19'0 0.0
2017-Jun-22 18:00N 37°49' W 122°19'0 0.0
2017-Jun-22 17:30N 37°49' W 122°19'1 2.1
2017-Jun-22 17:00N 37°49' W 122°20'510.5
2017-Jun-22 16:30N 37°53' W 122°24'3 4.9
2017-Jun-22 16:00N 37°55' W 122°22'1 1.6
2017-Jun-22 15:30N 37°54' W 122°23'4 7.9
2017-Jun-22 15:00N 37°50' W 122°22'2 4.8
2017-Jun-22 14:30N 37°48' W 122°21'0 0.0
2017-Jun-22 13:30N 37°48' W 122°21'0 0.0
2017-Jun-22 13:00N 37°48' W 122°21'0 0.0
2017-Jun-22 12:30N 37°48' W 122°21'0 0.0
2017-Jun-22 12:00N 37°48' W 122°21'2 3.7
2017-Jun-22 11:30N 37°48' W 122°18'0 0.1
2017-Jun-22 11:00N 37°48' W 122°18'1 2.3
2017-Jun-22 10:30N 37°48' W 122°20'1 1.5
2017-Jun-22 10:00N 37°49' W 122°20'0 0.1
2017-Jun-22 09:30N 37°49' W 122°19'1 1.8
2017-Jun-22 09:00N 37°49' W 122°19'0 0.0
2017-Jun-22 08:30N 37°49' W 122°19'0 0.0
2017-Jun-22 08:01N 37°49' W 122°19'0 0.0
2017-Jun-22 07:30N 37°49' W 122°19'0 0.0
2017-Jun-22 07:00N 37°49' W 122°19'0 0.0
2017-Jun-22 06:30N 37°49' W 122°19'1 2.5
2017-Jun-22 06:00N 37°49' W 122°20'5 9.6
2017-Jun-22 05:30N 37°52' W 122°24'2 0.6
2017-Jun-22 01:14N 37°54' W 122°23'1 3.3
2017-Jun-22 01:01N 37°55' W 122°24'1 1.8
2017-Jun-22 00:31N 37°54' W 122°23'1 1.8
2017-Jun-22 00:00N 37°54' W 122°22'0 0.1
2017-Jun-21 23:31N 37°55' W 122°22'3 5.2
2017-Jun-21 23:01N 37°53' W 122°25'5 9.9
2017-Jun-21 22:31N 37°49' W 122°21'2 4.0
2017-Jun-21 22:00N 37°49' W 122°19'0 0.0
2017-Jun-21 21:30N 37°49' W 122°19'0 0.0
2017-Jun-21 21:00N 37°49' W 122°19'0 0.0
2017-Jun-21 20:30N 37°49' W 122°19'0 0.0
2017-Jun-21 20:01N 37°49' W 122°19'0 0.0
2017-Jun-21 19:30N 37°49' W 122°19'0 0.0
2017-Jun-21 19:00N 37°49' W 122°19'0 0.0
2017-Jun-21 18:30N 37°49' W 122°19'0 0.0
2017-Jun-21 18:01N 37°49' W 122°19'0 0.0
2017-Jun-21 17:30N 37°49' W 122°19'0 0.0
2017-Jun-21 17:00N 37°49' W 122°19'0 0.0
2017-Jun-21 16:30N 37°49' W 122°19'0 0.0
2017-Jun-21 16:00N 37°49' W 122°19'0 0.0
2017-Jun-21 15:30N 37°49' W 122°19'0 0.0
2017-Jun-21 15:00N 37°49' W 122°19'0 0.0
2017-Jun-21 14:30N 37°49' W 122°19'0 0.0
2017-Jun-21 13:30N 37°49' W 122°19'2 3.1
2017-Jun-21 13:01N 37°48' W 122°19'0 0.3
2017-Jun-21 12:31N 37°48' W 122°19'1 2.9
2017-Jun-21 12:01N 37°48' W 122°17'3 5.7
2017-Jun-21 11:31N 37°48' W 122°21'0 0.6
2017-Jun-21 11:00N 37°48' W 122°21'0 0.0
2017-Jun-21 10:31N 37°48' W 122°21'0 0.0
2017-Jun-21 10:01N 37°48' W 122°21'0 0.0
2017-Jun-21 09:31N 37°48' W 122°21'0 0.0
2017-Jun-21 09:00N 37°48' W 122°21'0 0.0
2017-Jun-21 08:30N 37°48' W 122°21'0 0.0
2017-Jun-21 08:00N 37°48' W 122°21'0 0.0
2017-Jun-21 07:30N 37°48' W 122°21'0 0.0
2017-Jun-21 07:00N 37°48' W 122°21'0 0.0
2017-Jun-21 06:31N 37°48' W 122°21'0 0.0
2017-Jun-21 06:01N 37°48' W 122°21'0 0.0
2017-Jun-21 05:30N 37°48' W 122°21'0 0.0
2017-Jun-21 05:00N 37°48' W 122°21'2 3.8
2017-Jun-21 04:31N 37°50' W 122°22'5 9.1
2017-Jun-21 04:01N 37°54' W 122°25'3 5.0
2017-Jun-21 03:30N 37°54' W 122°22'0 0.4
2017-Jun-21 03:00N 37°54' W 122°22'2 4.9
2017-Jun-21 02:31N 37°55' W 122°25'1 2.4
2017-Jun-21 02:01N 37°54' W 122°25'3 5.7
2017-Jun-21 01:31N 37°55' W 122°22'0 0.2
2017-Jun-21 01:01N 37°55' W 122°22'1 2.8
2017-Jun-21 00:30N 37°54' W 122°23'0 0.3
2017-Jun-21 00:00N 37°54' W 122°24'2 3.8
2017-Jun-20 23:30N 37°53' W 122°25'2 4.1
2017-Jun-20 23:00N 37°55' W 122°23'0 0.0
2017-Jun-20 22:30N 37°55' W 122°23'0 0.0
2017-Jun-20 22:01N 37°55' W 122°23'0 0.0
2017-Jun-20 21:30N 37°55' W 122°23'0 0.0
2017-Jun-20 21:00N 37°55' W 122°23'0 0.0
2017-Jun-20 20:31N 37°55' W 122°23'0 0.0
2017-Jun-20 20:01N 37°55' W 122°23'0 0.0
2017-Jun-20 19:31N 37°55' W 122°23'0 0.0
2017-Jun-20 19:00N 37°55' W 122°23'1 2.6
2017-Jun-20 18:30N 37°55' W 122°25'5 9.7
2017-Jun-20 17:58N 38°00' W 122°24'5 7.6
2017-Jun-20 17:22N 38°03' W 122°19'4 6.9
2017-Jun-20 16:48N 38°04' W 122°14'1 0.0
2017-Jun-19 13:02N 38°04' W 122°13'2 8.3
2017-Jun-19 12:50N 38°04' W 122°15'3 8.2
2017-Jun-19 12:30N 38°03' W 122°19'5 8.6
2017-Jun-19 11:59N 38°01' W 122°24'4 8.8
2017-Jun-19 11:30N 37°57' W 122°26'4 8.9
2017-Jun-19 11:00N 37°53' W 122°24'4 8.6
2017-Jun-19 10:30N 37°49' W 122°21'2 4.2
2017-Jun-19 10:00N 37°49' W 122°19'0 0.0
2017-Jun-19 09:30N 37°49' W 122°19'0 0.0
2017-Jun-19 09:00N 37°49' W 122°19'0 0.0
2017-Jun-19 08:31N 37°49' W 122°19'0 0.0
2017-Jun-19 08:01N 37°49' W 122°19'0 0.0
2017-Jun-19 07:31N 37°49' W 122°19'0 0.0
2017-Jun-19 07:00N 37°49' W 122°19'0 0.0
2017-Jun-19 06:30N 37°49' W 122°19'0 0.0
2017-Jun-19 06:00N 37°49' W 122°19'0 0.0
2017-Jun-19 05:30N 37°49' W 122°19'0 0.0
2017-Jun-19 05:00N 37°49' W 122°19'0 0.0
2017-Jun-19 04:30N 37°49' W 122°19'0 0.0
2017-Jun-19 04:00N 37°49' W 122°19'0 0.0
2017-Jun-19 03:30N 37°49' W 122°19'0 0.0
2017-Jun-19 03:01N 37°49' W 122°19'0 0.0
2017-Jun-19 02:30N 37°49' W 122°19'0 0.0
2017-Jun-19 02:00N 37°49' W 122°19'  
Track history (hours):
 
Tides and Currents Weather Stations Pressure Air Temp Water Temp Dewpoint Dewpoint Depression Visibility Wind Speed Wind Dir Waves Ship Positions

Patriot

Owner: AMNAV Maritime Corporation, Oakland, CA. More information available from US FCC via Universal Licensing System and Coast Guard Vessel Documentation Center.

Last reported at 2017-Jun-29 02:00 UTC. Time now 2017-Jun-29 02:07 UTC.
Position N 37°54' W 122°23'.

Length 31 m; draft 4.6 m.

Type: Tug. MMSI: 366998680.

Date/timePositionNaut miles runAvg speedWind from/ knotsBaromVisibWave heightAir tempDewpointWater temp
2017-Jun-29 02:00N 37°54' W 122°23'0 0.0
2017-Jun-29 01:30N 37°54' W 122°23'0 0.0
2017-Jun-29 01:00N 37°54' W 122°23'0 0.0
2017-Jun-29 00:30N 37°54' W 122°23'0 0.0
2017-Jun-29 00:00N 37°54' W 122°23'1 2.1
2017-Jun-28 23:30N 37°54' W 122°22'0 0.6
2017-Jun-28 23:00N 37°55' W 122°22'0 0.0
2017-Jun-28 22:30N 37°55' W 122°22'2 3.4
2017-Jun-28 22:01N 37°54' W 122°24'611.0
2017-Jun-28 21:30N 37°49' W 122°21'2 4.4
2017-Jun-28 21:00N 37°49' W 122°19'0 0.0
2017-Jun-28 20:30N 37°49' W 122°19'0 0.0
2017-Jun-28 20:00N 37°49' W 122°19'0 0.0
2017-Jun-28 19:31N 37°49' W 122°19'0 0.0
2017-Jun-28 19:01N 37°49' W 122°19'0 0.0
2017-Jun-28 18:30N 37°49' W 122°19'0 0.0
2017-Jun-28 18:01N 37°49' W 122°19'0 0.0
2017-Jun-28 17:31N 37°49' W 122°19'0 0.0
2017-Jun-28 17:01N 37°49' W 122°19'0 0.0
2017-Jun-28 16:30N 37°49' W 122°19'0 0.0
2017-Jun-28 16:01N 37°49' W 122°19'0 0.0
2017-Jun-28 15:31N 37°49' W 122°19'0 0.0
2017-Jun-28 15:00N 37°49' W 122°19'2 1.6
2017-Jun-28 14:01N 37°48' W 122°19'0 0.0
2017-Jun-28 13:30N 37°48' W 122°19'1 2.1
2017-Jun-28 13:01N 37°48' W 122°18'1 1.4
2017-Jun-28 12:30N 37°48' W 122°19'3 6.3
2017-Jun-28 12:00N 37°48' W 122°23'2 3.4
2017-Jun-28 11:31N 37°48' W 122°21'0 0.0
2017-Jun-28 11:00N 37°48' W 122°21'0 0.0
2017-Jun-28 10:30N 37°48' W 122°21'0 0.0
2017-Jun-28 10:00N 37°48' W 122°21'0 0.0
2017-Jun-28 09:30N 37°48' W 122°21'0 0.0
2017-Jun-28 09:00N 37°48' W 122°21'0 0.0
2017-Jun-28 08:30N 37°48' W 122°21'0 0.0
2017-Jun-28 08:01N 37°48' W 122°21'0 0.0
2017-Jun-28 07:31N 37°48' W 122°21'0 0.0
2017-Jun-28 07:00N 37°48' W 122°21'0 0.0
2017-Jun-28 06:30N 37°48' W 122°21'0 0.0
2017-Jun-28 06:00N 37°48' W 122°21'0 0.0
2017-Jun-28 05:31N 37°48' W 122°21'0 0.0
2017-Jun-28 05:00N 37°48' W 122°21'0 0.0
2017-Jun-28 04:30N 37°48' W 122°21'0 0.0
2017-Jun-28 04:00N 37°48' W 122°21'4 7.1
2017-Jun-28 03:30N 37°51' W 122°23'510.5
2017-Jun-28 03:00N 37°56' W 122°26'610.2
2017-Jun-28 02:27N 38°01' W 122°23'6 9.1
2017-Jun-28 01:48N 38°03' W 122°16'0 0.0
2017-Jun-28 01:21N 38°03' W 122°16'0 0.7
2017-Jun-28 00:49N 38°04' W 122°16'2 4.3
2017-Jun-28 00:28N 38°03' W 122°18'0 0.1
2017-Jun-27 23:57N 38°03' W 122°18'4 7.4
2017-Jun-27 23:26N 38°02' W 122°22'5 9.5
2017-Jun-27 22:54N 37°58' W 122°26'411.3
2017-Jun-27 22:30N 37°53' W 122°25'5 9.7
2017-Jun-27 22:01N 37°49' W 122°21'2 4.5
2017-Jun-27 21:30N 37°49' W 122°19'0 0.0
2017-Jun-27 21:00N 37°49' W 122°19'0 0.0
2017-Jun-27 20:30N 37°49' W 122°19'0 0.0
2017-Jun-27 20:00N 37°49' W 122°19'0 0.0
2017-Jun-27 19:30N 37°49' W 122°19'0 0.0
2017-Jun-27 19:00N 37°49' W 122°19'0 0.0
2017-Jun-27 18:30N 37°49' W 122°19'0 0.0
2017-Jun-27 18:00N 37°49' W 122°19'0 0.0
2017-Jun-27 17:30N 37°49' W 122°19'0 0.0
2017-Jun-27 17:00N 37°49' W 122°19'0 0.0
2017-Jun-27 16:30N 37°49' W 122°19'0 0.0
2017-Jun-27 16:00N 37°49' W 122°19'0 0.0
2017-Jun-27 15:30N 37°49' W 122°19'0 0.0
2017-Jun-27 15:00N 37°49' W 122°19'0 0.0
2017-Jun-27 14:30N 37°49' W 122°19'0 0.0
2017-Jun-27 13:30N 37°49' W 122°19'0 0.0
2017-Jun-27 12:59N 37°49' W 122°19'2 3.3
2017-Jun-27 12:30N 37°48' W 122°19'1 1.0
2017-Jun-27 12:00N 37°48' W 122°20'1 1.3
2017-Jun-27 11:31N 37°49' W 122°20'1 2.9
2017-Jun-27 11:00N 37°49' W 122°19'0 0.0
2017-Jun-27 10:30N 37°49' W 122°19'0 0.0
2017-Jun-27 10:00N 37°49' W 122°19'0 0.0
2017-Jun-27 09:30N 37°49' W 122°19'0 0.0
2017-Jun-27 09:00N 37°49' W 122°19'0 0.0
2017-Jun-27 08:31N 37°49' W 122°19'0 0.0
2017-Jun-27 08:01N 37°49' W 122°19'0 0.0
2017-Jun-27 07:30N 37°49' W 122°19'0 0.0
2017-Jun-27 07:00N 37°49' W 122°19'0 0.0
2017-Jun-27 06:31N 37°49' W 122°19'0 0.0
2017-Jun-27 06:00N 37°49' W 122°19'0 0.0
2017-Jun-27 05:30N 37°49' W 122°19'0 0.0
2017-Jun-27 05:00N 37°49' W 122°19'0 0.0
2017-Jun-27 04:31N 37°49' W 122°19'0 0.0
2017-Jun-27 04:01N 37°49' W 122°19'0 0.0
2017-Jun-27 03:30N 37°49' W 122°19'0 0.0
2017-Jun-27 03:00N 37°49' W 122°19'0 0.0
2017-Jun-27 02:31N 37°49' W 122°19'0 0.0
2017-Jun-27 02:00N 37°49' W 122°19'0 0.0
2017-Jun-27 01:30N 37°49' W 122°19'0 0.0
2017-Jun-27 01:00N 37°49' W 122°19'1 1.9
2017-Jun-27 00:30N 37°49' W 122°20'0 0.1
2017-Jun-27 00:00N 37°49' W 122°20'0 0.9
2017-Jun-26 23:30N 37°49' W 122°20'0 0.0
2017-Jun-26 23:00N 37°49' W 122°20'0 0.5
2017-Jun-26 22:31N 37°49' W 122°20'0 0.4
2017-Jun-26 22:00N 37°48' W 122°21'0 0.2
2017-Jun-26 21:30N 37°48' W 122°20'510.6
2017-Jun-26 21:00N 37°53' W 122°24'610.2
2017-Jun-26 20:28N 37°58' W 122°26'510.1
2017-Jun-26 19:58N 38°02' W 122°21'6 0.2
2017-Jun-25 06:20N 38°04' W 122°13'413.0
2017-Jun-25 06:00N 38°03' W 122°19'612.8
2017-Jun-25 05:30N 37°59' W 122°25'4 8.2
2017-Jun-25 05:00N 37°55' W 122°25'0 0.0
2017-Jun-25 04:30N 37°55' W 122°25'0 0.0
2017-Jun-25 04:00N 37°55' W 122°25'1 2.0
2017-Jun-25 03:30N 37°54' W 122°25'1 2.4
2017-Jun-25 03:00N 37°53' W 122°25'1 1.1
2017-Jun-25 02:30N 37°53' W 122°25'3 6.2
2017-Jun-25 02:00N 37°50' W 122°22'4 8.4
2017-Jun-25 01:31N 37°48' W 122°18'0 0.1
2017-Jun-25 01:01N 37°48' W 122°18'0 0.7
2017-Jun-25 00:31N 37°48' W 122°18'3 5.3
2017-Jun-25 00:00N 37°48' W 122°21'0 0.8
2017-Jun-24 23:30N 37°48' W 122°22'1 2.0
2017-Jun-24 23:01N 37°48' W 122°21'0 0.0
2017-Jun-24 22:30N 37°48' W 122°21'0 0.0
2017-Jun-24 22:01N 37°48' W 122°21'1 1.7
2017-Jun-24 21:30N 37°49' W 122°20'0 0.3
2017-Jun-24 21:01N 37°49' W 122°20'1 2.1
2017-Jun-24 20:30N 37°49' W 122°19'0 0.0
2017-Jun-24 20:00N 37°49' W 122°19'0 0.0
2017-Jun-24 19:30N 37°49' W 122°19'0 0.0
2017-Jun-24 19:00N 37°49' W 122°19'0 0.0
2017-Jun-24 18:30N 37°49' W 122°19'0 0.0
2017-Jun-24 18:01N 37°49' W 122°19'0 0.0
2017-Jun-24 17:21N 37°49' W 122°19'0 0.0
2017-Jun-24 17:00N 37°49' W 122°19'0 0.1
2017-Jun-24 16:30N 37°49' W 122°19'0 0.1
2017-Jun-24 16:00N 37°49' W 122°19'0 0.0
2017-Jun-24 15:31N 37°49' W 122°19'0 0.1
2017-Jun-24 15:01N 37°49' W 122°19'0 0.0
2017-Jun-24 14:00N 37°49' W 122°19'0 0.1
2017-Jun-24 13:30N 37°49' W 122°19'0 0.1
2017-Jun-24 13:00N 37°49' W 122°19'0 0.0
2017-Jun-24 12:31N 37°49' W 122°19'0 0.0
2017-Jun-24 12:01N 37°49' W 122°19'0 0.0
2017-Jun-24 11:30N 37°49' W 122°19'0 0.0
2017-Jun-24 11:01N 37°49' W 122°19'0 0.0
2017-Jun-24 10:31N 37°49' W 122°19'0 0.0
2017-Jun-24 10:01N 37°49' W 122°19'0 0.0
2017-Jun-24 09:31N 37°49' W 122°19'0 0.1
2017-Jun-24 09:01N 37°49' W 122°19'0 0.1
2017-Jun-24 08:31N 37°49' W 122°19'0 0.0
2017-Jun-24 08:01N 37°49' W 122°19'0 0.0
2017-Jun-24 07:30N 37°49' W 122°19'0 0.0
2017-Jun-24 07:01N 37°49' W 122°19'0 0.0
2017-Jun-24 06:31N 37°49' W 122°19'0 0.1
2017-Jun-24 06:01N 37°49' W 122°19'0 0.0
2017-Jun-24 05:31N 37°49' W 122°19'0 0.1
2017-Jun-24 05:01N 37°49' W 122°19'0 0.0
2017-Jun-24 04:30N 37°49' W 122°19'0 0.0
2017-Jun-24 04:01N 37°49' W 122°19'0 0.0
2017-Jun-24 03:30N 37°49' W 122°19'0 0.0
2017-Jun-24 03:00N 37°49' W 122°19'0 0.1
2017-Jun-24 02:31N 37°49' W 122°19'0 0.6
2017-Jun-24 02:00N 37°49' W 122°19'611.5
2017-Jun-24 01:31N 37°49' W 122°26'1 2.2
2017-Jun-24 01:01N 37°50' W 122°27'5 9.8
2017-Jun-24 00:30N 37°48' W 122°21'2 3.3
2017-Jun-24 00:01N 37°48' W 122°19'0 0.0
2017-Jun-23 23:31N 37°48' W 122°19'0 0.0
2017-Jun-23 23:01N 37°48' W 122°19'0 0.0
2017-Jun-23 22:30N 37°48' W 122°19'3 6.7
2017-Jun-23 22:01N 37°50' W 122°22'611.5
2017-Jun-23 21:31N 37°55' W 122°25'611.1
2017-Jun-23 20:56N 38°01' W 122°23'810.3
2017-Jun-23 20:12N 38°04' W 122°14'4 2.4
2017-Jun-23 18:20N 38°02' W 122°08'0 0.0
2017-Jun-23 02:13N 38°02' W 122°08'2 9.3
2017-Jun-23 02:00N 38°03' W 122°11'510.4
2017-Jun-23 01:30N 38°03' W 122°17'610.8
2017-Jun-23 01:00N 38°01' W 122°24'510.4
2017-Jun-23 00:30N 37°56' W 122°25'1 1.9
2017-Jun-22 23:58N 37°55' W 122°25'0 0.5
2017-Jun-22 23:31N 37°54' W 122°25'0 0.0
2017-Jun-22 23:00N 37°54' W 122°25'1 1.1
2017-Jun-22 22:30N 37°54' W 122°24'2 3.3
2017-Jun-22 22:00N 37°54' W 122°22'0 1.0
2017-Jun-22 21:30N 37°55' W 122°22'1 1.5
2017-Jun-22 21:00N 37°54' W 122°22'4 7.5
2017-Jun-22 20:30N 37°50' W 122°23'3 6.7
2017-Jun-22 20:00N 37°49' W 122°19'0 0.0
2017-Jun-22 19:30N 37°49' W 122°19'0 0.0
2017-Jun-22 19:00N 37°49' W 122°19'0 0.0
2017-Jun-22 18:30N 37°49' W 122°19'0 0.0
2017-Jun-22 18:00N 37°49' W 122°19'0 0.0
2017-Jun-22 17:30N 37°49' W 122°19'1 2.1
2017-Jun-22 17:00N 37°49' W 122°20'510.5
2017-Jun-22 16:30N 37°53' W 122°24'3 4.9
2017-Jun-22 16:00N 37°55' W 122°22'1 1.6
2017-Jun-22 15:30N 37°54' W 122°23'4 7.9
2017-Jun-22 15:00N 37°50' W 122°22'2 4.8
2017-Jun-22 14:30N 37°48' W 122°21'0 0.0
2017-Jun-22 13:30N 37°48' W 122°21'0 0.0
2017-Jun-22 13:00N 37°48' W 122°21'0 0.0
2017-Jun-22 12:30N 37°48' W 122°21'0 0.0
2017-Jun-22 12:00N 37°48' W 122°21'2 3.7
2017-Jun-22 11:30N 37°48' W 122°18'0 0.1
2017-Jun-22 11:00N 37°48' W 122°18'1 2.3
2017-Jun-22 10:30N 37°48' W 122°20'1 1.5
2017-Jun-22 10:00N 37°49' W 122°20'0 0.1
2017-Jun-22 09:30N 37°49' W 122°19'1 1.8
2017-Jun-22 09:00N 37°49' W 122°19'0 0.0
2017-Jun-22 08:30N 37°49' W 122°19'0 0.0
2017-Jun-22 08:01N 37°49' W 122°19'0 0.0
2017-Jun-22 07:30N 37°49' W 122°19'0 0.0
2017-Jun-22 07:00N 37°49' W 122°19'0 0.0
2017-Jun-22 06:30N 37°49' W 122°19'1 2.5
2017-Jun-22 06:00N 37°49' W 122°20'5 9.6
2017-Jun-22 05:30N 37°52' W 122°24'2 0.6
2017-Jun-22 01:14N 37°54' W 122°23'1 3.3
2017-Jun-22 01:01N 37°55' W 122°24'1 1.8
2017-Jun-22 00:31N 37°54' W 122°23'1 1.8
2017-Jun-22 00:00N 37°54' W 122°22'0 0.1
2017-Jun-21 23:31N 37°55' W 122°22'3 5.2
2017-Jun-21 23:01N 37°53' W 122°25'5 9.9
2017-Jun-21 22:31N 37°49' W 122°21'2 4.0
2017-Jun-21 22:00N 37°49' W 122°19'0 0.0
2017-Jun-21 21:30N 37°49' W 122°19'0 0.0
2017-Jun-21 21:00N 37°49' W 122°19'0 0.0
2017-Jun-21 20:30N 37°49' W 122°19'0 0.0
2017-Jun-21 20:01N 37°49' W 122°19'0 0.0
2017-Jun-21 19:30N 37°49' W 122°19'0 0.0
2017-Jun-21 19:00N 37°49' W 122°19'0 0.0
2017-Jun-21 18:30N 37°49' W 122°19'0 0.0
2017-Jun-21 18:01N 37°49' W 122°19'0 0.0
2017-Jun-21 17:30N 37°49' W 122°19'0 0.0
2017-Jun-21 17:00N 37°49' W 122°19'0 0.0
2017-Jun-21 16:30N 37°49' W 122°19'0 0.0
2017-Jun-21 16:00N 37°49' W 122°19'0 0.0
2017-Jun-21 15:30N 37°49' W 122°19'0 0.0
2017-Jun-21 15:00N 37°49' W 122°19'0 0.0
2017-Jun-21 14:30N 37°49' W 122°19'0 0.0
2017-Jun-21 13:30N 37°49' W 122°19'2 3.1
2017-Jun-21 13:01N 37°48' W 122°19'0 0.3
2017-Jun-21 12:31N 37°48' W 122°19'1 2.9
2017-Jun-21 12:01N 37°48' W 122°17'3 5.7
2017-Jun-21 11:31N 37°48' W 122°21'0 0.6
2017-Jun-21 11:00N 37°48' W 122°21'0 0.0
2017-Jun-21 10:31N 37°48' W 122°21'0 0.0
2017-Jun-21 10:01N 37°48' W 122°21'0 0.0
2017-Jun-21 09:31N 37°48' W 122°21'0 0.0
2017-Jun-21 09:00N 37°48' W 122°21'0 0.0
2017-Jun-21 08:30N 37°48' W 122°21'0 0.0
2017-Jun-21 08:00N 37°48' W 122°21'0 0.0
2017-Jun-21 07:30N 37°48' W 122°21'0 0.0
2017-Jun-21 07:00N 37°48' W 122°21'0 0.0
2017-Jun-21 06:31N 37°48' W 122°21'0 0.0
2017-Jun-21 06:01N 37°48' W 122°21'0 0.0
2017-Jun-21 05:30N 37°48' W 122°21'0 0.0
2017-Jun-21 05:00N 37°48' W 122°21'2 3.8
2017-Jun-21 04:31N 37°50' W 122°22'5 9.1
2017-Jun-21 04:01N 37°54' W 122°25'3 5.0
2017-Jun-21 03:30N 37°54' W 122°22'0 0.4
2017-Jun-21 03:00N 37°54' W 122°22'2 4.9
2017-Jun-21 02:31N 37°55' W 122°25'1 2.4
2017-Jun-21 02:01N 37°54' W 122°25'3 5.7
2017-Jun-21 01:31N 37°55' W 122°22'0 0.2
2017-Jun-21 01:01N 37°55' W 122°22'1 2.8
2017-Jun-21 00:30N 37°54' W 122°23'0 0.3
2017-Jun-21 00:00N 37°54' W 122°24'2 3.8
2017-Jun-20 23:30N 37°53' W 122°25'2 4.1
2017-Jun-20 23:00N 37°55' W 122°23'0 0.0
2017-Jun-20 22:30N 37°55' W 122°23'0 0.0
2017-Jun-20 22:01N 37°55' W 122°23'0 0.0
2017-Jun-20 21:30N 37°55' W 122°23'0 0.0
2017-Jun-20 21:00N 37°55' W 122°23'0 0.0
2017-Jun-20 20:31N 37°55' W 122°23'0 0.0
2017-Jun-20 20:01N 37°55' W 122°23'0 0.0
2017-Jun-20 19:31N 37°55' W 122°23'0 0.0
2017-Jun-20 19:00N 37°55' W 122°23'1 2.6
2017-Jun-20 18:30N 37°55' W 122°25'5 9.7
2017-Jun-20 17:58N 38°00' W 122°24'5 7.6
2017-Jun-20 17:22N 38°03' W 122°19'4 6.9
2017-Jun-20 16:48N 38°04' W 122°14'1 0.0
2017-Jun-19 13:02N 38°04' W 122°13'2 8.3
2017-Jun-19 12:50N 38°04' W 122°15'3 8.2
2017-Jun-19 12:30N 38°03' W 122°19'5 8.6
2017-Jun-19 11:59N 38°01' W 122°24'4 8.8
2017-Jun-19 11:30N 37°57' W 122°26'4 8.9
2017-Jun-19 11:00N 37°53' W 122°24'4 8.6
2017-Jun-19 10:30N 37°49' W 122°21'2 4.2
2017-Jun-19 10:00N 37°49' W 122°19'0 0.0
2017-Jun-19 09:30N 37°49' W 122°19'0 0.0
2017-Jun-19 09:00N 37°49' W 122°19'0 0.0
2017-Jun-19 08:31N 37°49' W 122°19'0 0.0
2017-Jun-19 08:01N 37°49' W 122°19'0 0.0
2017-Jun-19 07:31N 37°49' W 122°19'0 0.0
2017-Jun-19 07:00N 37°49' W 122°19'0 0.0
2017-Jun-19 06:30N 37°49' W 122°19'0 0.0
2017-Jun-19 06:00N 37°49' W 122°19'0 0.0
2017-Jun-19 05:30N 37°49' W 122°19'0 0.0
2017-Jun-19 05:00N 37°49' W 122°19'0 0.0
2017-Jun-19 04:30N 37°49' W 122°19'0 0.0
2017-Jun-19 04:00N 37°49' W 122°19'0 0.0
2017-Jun-19 03:30N 37°49' W 122°19'0 0.0
2017-Jun-19 03:01N 37°49' W 122°19'0 0.0
2017-Jun-19 02:30N 37°49' W 122°19'0 0.0
2017-Jun-19 02:00N 37°49' W 122°19'  

Dump ship's entire track history